createdAt,value
2017-10-17T00:00:29.180Z,86.41
2017-10-17T00:01:31.075Z,86.31
2017-10-17T00:02:32.895Z,85.74
2017-10-17T00:03:34.715Z,86.08
2017-10-17T00:04:36.598Z,86.36
2017-10-17T00:05:38.482Z,86.84
2017-10-17T00:06:40.364Z,86.36
2017-10-17T00:07:54.530Z,86.69
2017-10-17T00:08:56.418Z,86.98
2017-10-17T00:09:58.303Z,86.98
2017-10-17T00:11:00.188Z,86.98
2017-10-17T00:12:02.020Z,86.98
2017-10-17T00:13:03.844Z,86.21
2017-10-17T00:14:05.724Z,85.35
2017-10-17T00:15:07.611Z,85.12
2017-10-17T00:16:09.494Z,85.79
2017-10-17T00:17:23.650Z,87.03
2017-10-17T00:18:25.533Z,87.13
2017-10-17T00:19:27.430Z,87.41
2017-10-17T00:20:29.313Z,88.18
2017-10-17T00:21:31.142Z,88.42
2017-10-17T00:22:32.973Z,88.13
2017-10-17T00:23:34.857Z,88.03
2017-10-17T00:24:36.743Z,88.42
2017-10-17T00:25:38.629Z,88.03
2017-10-17T00:26:52.788Z,87.37
2017-10-17T00:27:54.672Z,87.55
2017-10-17T00:28:56.558Z,87.84
2017-10-17T00:29:58.443Z,87.17
2017-10-17T00:31:00.261Z,86.79
2017-10-17T00:32:02.084Z,86.88
2017-10-17T00:33:03.968Z,87.17
2017-10-17T00:34:05.852Z,87.65
2017-10-17T00:35:07.744Z,87.84
2017-10-17T00:36:21.899Z,87.46
2017-10-17T00:37:23.788Z,87.55
2017-10-17T00:38:25.671Z,87.55
2017-10-17T00:39:27.557Z,87.46
2017-10-17T00:40:29.386Z,87.27
2017-10-17T00:41:31.206Z,87.55
2017-10-17T00:42:33.092Z,87.50
2017-10-17T00:43:34.995Z,87.70
2017-10-17T00:44:36.869Z,88.27
2017-10-17T00:45:51.026Z,87.98
2017-10-17T00:46:52.909Z,87.60
2017-10-17T00:47:54.807Z,87.70
2017-10-17T00:48:56.695Z,87.70
2017-10-17T00:49:58.508Z,87.50
2017-10-17T00:51:00.328Z,87.79
2017-10-17T00:52:02.216Z,87.50
2017-10-17T00:53:04.099Z,87.60
2017-10-17T00:54:05.982Z,87.41
2017-10-17T00:55:20.140Z,87.98
2017-10-17T00:56:22.026Z,87.60
2017-10-17T00:57:23.919Z,87.41
2017-10-17T00:58:25.803Z,87.50
2017-10-17T00:59:27.634Z,87.50
2017-10-17T01:00:29.456Z,87.60
2017-10-17T01:01:31.337Z,87.50
2017-10-17T01:02:33.224Z,87.79
2017-10-17T01:03:35.120Z,87.21
2017-10-17T01:04:49.286Z,87.17
2017-10-17T01:05:51.170Z,87.21
2017-10-17T01:06:53.055Z,87.08
2017-10-17T01:07:54.951Z,86.79
2017-10-17T01:08:56.782Z,87.21
2017-10-17T01:09:58.604Z,87.12
2017-10-17T01:11:00.498Z,87.21
2017-10-17T01:12:02.393Z,87.79
2017-10-17T01:13:04.277Z,87.41
2017-10-17T01:14:18.437Z,87.41
2017-10-17T01:15:20.322Z,87.31
2017-10-17T01:16:22.209Z,87.41
2017-10-17T01:17:24.093Z,87.21
2017-10-17T01:18:25.923Z,87.17
2017-10-17T01:19:27.742Z,87.08
2017-10-17T01:20:29.625Z,87.41
2017-10-17T01:21:31.510Z,87.17
2017-10-17T01:22:33.401Z,86.79
2017-10-17T01:23:47.570Z,86.98
2017-10-17T01:24:49.454Z,86.98
2017-10-17T01:25:51.345Z,87.17
2017-10-17T01:26:53.227Z,87.37
2017-10-17T01:27:55.050Z,87.55
2017-10-17T01:28:56.872Z,87.60
2017-10-17T01:29:58.757Z,87.50
2017-10-17T01:31:00.641Z,87.70
2017-10-17T01:32:02.529Z,87.70
2017-10-17T01:33:16.685Z,88.08
2017-10-17T01:34:18.569Z,88.27
2017-10-17T01:35:20.465Z,87.70
2017-10-17T01:36:22.350Z,88.37
2017-10-17T01:37:24.182Z,88.37
2017-10-17T01:38:26.003Z,87.88
2017-10-17T01:39:27.889Z,87.88
2017-10-17T01:40:29.774Z,88.08
2017-10-17T01:41:31.660Z,87.98
2017-10-17T01:42:45.814Z,88.46
2017-10-17T01:43:47.700Z,88.46
2017-10-17T01:44:49.589Z,88.65
2017-10-17T01:45:51.470Z,89.13
2017-10-17T01:46:53.313Z,89.42
2017-10-17T01:47:55.125Z,89.13
2017-10-17T01:48:57.011Z,88.56
2017-10-17T01:49:58.907Z,88.56
2017-10-17T01:51:00.793Z,88.65
2017-10-17T01:52:14.947Z,88.17
2017-10-17T01:53:16.843Z,88.56
2017-10-17T01:54:18.727Z,88.94
2017-10-17T01:55:20.613Z,88.94
2017-10-17T01:56:22.433Z,89.32
2017-10-17T01:57:24.252Z,89.32
2017-10-17T01:58:26.140Z,89.71
2017-10-17T01:59:28.025Z,89.51
2017-10-17T02:00:29.908Z,89.80
2017-10-17T02:01:44.062Z,90.00
2017-10-17T02:02:45.947Z,89.90
2017-10-17T02:03:47.837Z,89.27
2017-10-17T02:04:49.721Z,88.98
2017-10-17T02:05:51.542Z,89.18
2017-10-17T02:06:53.363Z,88.31
2017-10-17T02:07:55.250Z,88.41
2017-10-17T02:08:57.133Z,88.60
2017-10-17T02:09:59.022Z,88.31
2017-10-17T02:11:13.179Z,88.22
2017-10-17T02:12:15.064Z,87.49
2017-10-17T02:13:16.963Z,87.40
2017-10-17T02:14:18.850Z,87.59
2017-10-17T02:15:20.671Z,86.58
2017-10-17T02:16:22.503Z,86.30
2017-10-17T02:17:24.388Z,86.01
2017-10-17T02:18:26.284Z,86.40
2017-10-17T02:19:28.170Z,86.97
2017-10-17T02:20:42.343Z,87.74
2017-10-17T02:21:44.215Z,87.55
2017-10-17T02:22:46.108Z,87.16
2017-10-17T02:23:47.993Z,86.88
2017-10-17T02:24:49.812Z,87.07
2017-10-17T02:25:51.633Z,87.26
2017-10-17T02:26:53.520Z,87.84
2017-10-17T02:27:55.403Z,87.93
2017-10-17T02:28:57.289Z,87.55
2017-10-17T02:30:11.446Z,87.64
2017-10-17T02:31:13.331Z,87.55
2017-10-17T02:32:15.220Z,87.45
2017-10-17T02:33:17.106Z,87.55
2017-10-17T02:34:18.930Z,87.88
2017-10-17T02:35:20.748Z,87.98
2017-10-17T02:36:22.646Z,87.88
2017-10-17T02:37:24.534Z,87.30
2017-10-17T02:38:26.418Z,87.21
2017-10-17T02:39:40.594Z,87.11
2017-10-17T02:40:42.543Z,87.01
2017-10-17T02:41:44.399Z,87.30
2017-10-17T02:42:46.282Z,87.40
2017-10-17T02:43:48.131Z,87.07
2017-10-17T02:44:49.943Z,87.16
2017-10-17T02:45:51.828Z,87.84
2017-10-17T02:46:53.730Z,88.02
2017-10-17T02:47:55.603Z,87.45
2017-10-17T02:49:09.771Z,87.16
2017-10-17T02:50:11.657Z,87.35
2017-10-17T02:51:13.549Z,87.55
2017-10-17T02:52:15.435Z,88.02
2017-10-17T02:53:17.268Z,88.41
2017-10-17T02:54:19.127Z,88.02
2017-10-17T02:55:21.041Z,88.12
2017-10-17T02:56:22.959Z,88.31
2017-10-17T02:57:24.860Z,88.46
2017-10-17T02:58:39.055Z,88.12
2017-10-17T02:59:40.976Z,88.08
2017-10-17T03:00:42.912Z,88.17
2017-10-17T03:01:44.825Z,88.65
2017-10-17T03:02:46.676Z,88.46
2017-10-17T03:03:48.537Z,88.56
2017-10-17T03:04:50.452Z,89.04
2017-10-17T03:05:52.351Z,89.04
2017-10-17T03:06:54.248Z,89.13
2017-10-17T03:08:08.396Z,89.23
2017-10-17T03:09:10.279Z,88.94
2017-10-17T03:10:12.168Z,88.84
2017-10-17T03:11:14.053Z,88.84
2017-10-17T03:12:15.871Z,89.04
2017-10-17T03:13:17.697Z,88.75
2017-10-17T03:14:19.583Z,88.84
2017-10-17T03:15:21.469Z,88.75
2017-10-17T03:16:23.355Z,89.04
2017-10-17T03:17:37.510Z,88.84
2017-10-17T03:18:39.394Z,88.94
2017-10-17T03:19:41.282Z,89.13
2017-10-17T03:20:43.166Z,89.04
2017-10-17T03:21:44.987Z,88.65
2017-10-17T03:22:46.810Z,88.46
2017-10-17T03:23:48.698Z,88.37
2017-10-17T03:24:50.581Z,87.79
2017-10-17T03:25:52.469Z,86.83
2017-10-17T03:27:06.625Z,87.08
2017-10-17T03:28:08.512Z,87.65
2017-10-17T03:29:10.396Z,87.41
2017-10-17T03:30:12.278Z,88.08
2017-10-17T03:31:14.099Z,88.27
2017-10-17T03:32:15.922Z,88.08
2017-10-17T03:33:17.810Z,88.17
2017-10-17T03:34:19.693Z,88.17
2017-10-17T03:35:21.581Z,87.98
2017-10-17T03:36:35.785Z,88.27
2017-10-17T03:37:37.671Z,88.17
2017-10-17T03:38:39.554Z,88.08
2017-10-17T03:39:41.442Z,88.46
2017-10-17T03:40:43.262Z,88.27
2017-10-17T03:41:45.079Z,88.46
2017-10-17T03:42:46.967Z,88.65
2017-10-17T03:43:48.851Z,88.17
2017-10-17T03:44:50.737Z,88.37
2017-10-17T03:46:04.893Z,88.46
2017-10-17T03:47:06.780Z,88.17
2017-10-17T03:48:08.665Z,89.04
2017-10-17T03:49:10.549Z,89.13
2017-10-17T03:50:12.369Z,89.13
2017-10-17T03:51:14.189Z,88.75
2017-10-17T03:52:16.085Z,88.94
2017-10-17T03:53:17.989Z,88.84
2017-10-17T03:54:19.926Z,89.04
2017-10-17T03:55:34.151Z,89.04
2017-10-17T03:56:36.049Z,89.51
2017-10-17T03:57:37.979Z,89.71
2017-10-17T03:58:39.916Z,89.71
2017-10-17T03:59:41.792Z,89.42
2017-10-17T04:00:43.669Z,89.32
2017-10-17T04:01:45.597Z,89.42
2017-10-17T04:02:47.524Z,89.23
2017-10-17T04:03:49.463Z,89.51
2017-10-17T04:05:03.704Z,89.42
2017-10-17T04:06:05.643Z,88.94
2017-10-17T04:07:07.581Z,89.32
2017-10-17T04:08:09.519Z,89.32
2017-10-17T04:09:11.396Z,89.42
2017-10-17T04:10:13.240Z,89.13
2017-10-17T04:11:15.156Z,89.71
2017-10-17T04:12:17.067Z,89.51
2017-10-17T04:13:19.000Z,89.51
2017-10-17T04:14:33.235Z,89.32
2017-10-17T04:15:35.185Z,89.13
2017-10-17T04:16:37.126Z,89.61
2017-10-17T04:17:39.059Z,89.42
2017-10-17T04:18:40.934Z,89.42
2017-10-17T04:19:42.822Z,89.23
2017-10-17T04:20:44.733Z,89.51
2017-10-17T04:21:46.670Z,89.90
2017-10-17T04:22:48.610Z,89.71
2017-10-17T04:24:02.848Z,89.90
2017-10-17T04:25:04.759Z,89.71
2017-10-17T04:26:06.677Z,89.71
2017-10-17T04:27:08.619Z,89.71
2017-10-17T04:28:10.493Z,89.51
2017-10-17T04:29:12.367Z,89.71
2017-10-17T04:30:14.289Z,89.61
2017-10-17T04:31:16.229Z,90.57
2017-10-17T04:32:18.132Z,89.80
2017-10-17T04:33:32.285Z,89.71
2017-10-17T04:34:34.181Z,89.80
2017-10-17T04:35:36.075Z,89.80
2017-10-17T04:36:37.964Z,89.80
2017-10-17T04:37:39.787Z,89.80
2017-10-17T04:38:41.604Z,89.47
2017-10-17T04:39:43.491Z,90.19
2017-10-17T04:40:45.375Z,89.32
2017-10-17T04:41:47.260Z,90.28
2017-10-17T04:43:01.415Z,89.80
2017-10-17T04:44:03.301Z,89.51
2017-10-17T04:45:05.187Z,89.61
2017-10-17T04:46:07.071Z,89.80
2017-10-17T04:47:08.889Z,89.51
2017-10-17T04:48:10.715Z,89.71
2017-10-17T04:49:12.804Z,89.71
2017-10-17T04:50:14.688Z,89.61
2017-10-17T04:51:16.574Z,89.80
2017-10-17T04:52:30.741Z,89.61
2017-10-17T04:53:32.631Z,89.71
2017-10-17T04:54:34.517Z,89.51
2017-10-17T04:55:36.401Z,89.23
2017-10-17T04:56:38.221Z,89.23
2017-10-17T04:57:40.046Z,89.42
2017-10-17T04:58:41.927Z,89.32
2017-10-17T04:59:43.812Z,89.32
2017-10-17T05:00:45.699Z,89.51
2017-10-17T05:01:59.905Z,89.23
2017-10-17T05:03:01.791Z,89.32
2017-10-17T05:04:03.686Z,89.32
2017-10-17T05:05:05.570Z,89.23
2017-10-17T05:06:07.391Z,88.84
2017-10-17T05:07:09.212Z,88.94
2017-10-17T05:08:11.122Z,89.42
2017-10-17T05:09:12.997Z,89.23
2017-10-17T05:10:14.883Z,89.32
2017-10-17T05:11:29.044Z,89.32
2017-10-17T05:12:30.928Z,89.23
2017-10-17T05:13:32.823Z,89.42
2017-10-17T05:14:34.708Z,89.32
2017-10-17T05:15:36.531Z,89.32
2017-10-17T05:16:38.352Z,89.13
2017-10-17T05:17:40.262Z,89.42
2017-10-17T05:18:42.181Z,89.32
2017-10-17T05:19:44.115Z,89.32
2017-10-17T05:20:58.361Z,89.32
2017-10-17T05:22:00.282Z,89.51
2017-10-17T05:23:02.218Z,89.42
2017-10-17T05:24:04.130Z,89.32
2017-10-17T05:25:05.957Z,89.13
2017-10-17T05:26:07.779Z,89.61
2017-10-17T05:27:09.668Z,89.42
2017-10-17T05:28:11.555Z,89.13
2017-10-17T05:29:13.459Z,89.13
2017-10-17T05:30:27.620Z,89.71
2017-10-17T05:31:29.511Z,89.80
2017-10-17T05:32:31.398Z,89.51
2017-10-17T05:33:33.286Z,89.61
2017-10-17T05:34:35.138Z,89.71
2017-10-17T05:35:37.001Z,89.61
2017-10-17T05:36:38.936Z,89.51
2017-10-17T05:37:40.873Z,89.61
2017-10-17T05:38:42.827Z,89.51
2017-10-17T05:39:57.060Z,89.42
2017-10-17T05:40:58.972Z,89.42
2017-10-17T05:42:00.861Z,89.51
2017-10-17T05:43:02.765Z,89.32
2017-10-17T05:44:04.588Z,89.04
2017-10-17T05:45:06.426Z,89.51
2017-10-17T05:46:08.316Z,89.42
2017-10-17T05:47:10.203Z,89.42
2017-10-17T05:48:12.103Z,89.23
2017-10-17T05:49:26.263Z,89.32
2017-10-17T05:50:28.155Z,89.51
2017-10-17T05:51:30.046Z,89.42
2017-10-17T05:52:31.937Z,89.32
2017-10-17T05:53:33.769Z,88.75
2017-10-17T05:54:35.594Z,89.04
2017-10-17T05:55:37.479Z,88.94
2017-10-17T05:56:39.367Z,88.27
2017-10-17T05:57:41.260Z,88.27
2017-10-17T05:58:55.420Z,88.31
2017-10-17T05:59:57.310Z,88.22
2017-10-17T06:00:59.198Z,88.08
2017-10-17T06:02:01.088Z,88.41
2017-10-17T06:03:02.920Z,87.84
2017-10-17T06:04:04.764Z,88.12
2017-10-17T06:05:06.644Z,87.64
2017-10-17T06:06:08.532Z,87.55
2017-10-17T06:07:10.430Z,87.74
2017-10-17T06:08:24.589Z,87.26
2017-10-17T06:09:26.477Z,86.97
2017-10-17T06:10:28.361Z,86.88
2017-10-17T06:11:30.293Z,86.40
2017-10-17T06:12:32.096Z,86.49
2017-10-17T06:13:33.926Z,86.58
2017-10-17T06:14:35.814Z,86.49
2017-10-17T06:15:37.706Z,86.25
2017-10-17T06:16:39.612Z,86.34
2017-10-17T06:17:53.780Z,86.05
2017-10-17T06:18:55.659Z,85.86
2017-10-17T06:19:57.550Z,85.96
2017-10-17T06:20:59.443Z,85.38
2017-10-17T06:22:01.271Z,85.67
2017-10-17T06:23:03.099Z,85.28
2017-10-17T06:24:05.007Z,85.19
2017-10-17T06:25:06.883Z,85.38
2017-10-17T06:26:08.774Z,84.81
2017-10-17T06:27:22.936Z,84.91
2017-10-17T06:28:24.827Z,84.33
2017-10-17T06:29:26.721Z,84.42
2017-10-17T06:30:28.613Z,84.81
2017-10-17T06:31:30.441Z,84.27
2017-10-17T06:32:32.266Z,83.56
2017-10-17T06:33:34.160Z,83.80
2017-10-17T06:34:36.050Z,83.80
2017-10-17T06:35:37.941Z,83.31
2017-10-17T06:36:52.103Z,83.31
2017-10-17T06:37:53.996Z,82.84
2017-10-17T06:38:55.888Z,83.12
2017-10-17T06:39:57.779Z,83.12
2017-10-17T06:40:59.606Z,82.84
2017-10-17T06:42:01.437Z,82.84
2017-10-17T06:43:03.330Z,83.12
2017-10-17T06:44:05.220Z,83.22
2017-10-17T06:45:07.110Z,82.84
2017-10-17T06:46:21.274Z,82.74
2017-10-17T06:47:23.175Z,82.74
2017-10-17T06:48:25.056Z,82.54
2017-10-17T06:49:26.946Z,82.45
2017-10-17T06:50:28.790Z,82.45
2017-10-17T06:51:30.600Z,82.26
2017-10-17T06:52:32.497Z,82.26
2017-10-17T06:53:34.389Z,82.35
2017-10-17T06:54:36.282Z,82.01
2017-10-17T06:55:50.444Z,82.20
2017-10-17T06:56:52.338Z,81.92
2017-10-17T06:57:54.225Z,81.72
2017-10-17T06:58:56.130Z,81.43
2017-10-17T06:59:57.956Z,81.63
2017-10-17T07:00:59.791Z,81.63
2017-10-17T07:02:01.688Z,81.43
2017-10-17T07:03:03.579Z,81.53
2017-10-17T07:04:05.473Z,80.96
2017-10-17T07:05:19.637Z,80.86
2017-10-17T07:06:21.528Z,80.66
2017-10-17T07:07:23.425Z,80.47
2017-10-17T07:08:25.313Z,80.76
2017-10-17T07:09:27.140Z,80.86
2017-10-17T07:10:28.967Z,80.38
2017-10-17T07:11:30.861Z,80.19
2017-10-17T07:12:32.760Z,79.99
2017-10-17T07:13:34.647Z,79.90
2017-10-17T07:14:48.858Z,79.61
2017-10-17T07:15:50.754Z,79.84
2017-10-17T07:16:52.645Z,79.75
2017-10-17T07:17:54.537Z,79.46
2017-10-17T07:18:56.364Z,79.42
2017-10-17T07:19:58.191Z,79.65
2017-10-17T07:21:00.096Z,79.46
2017-10-17T07:22:01.987Z,79.61
2017-10-17T07:23:03.881Z,79.17
2017-10-17T07:24:18.044Z,79.27
2017-10-17T07:25:19.944Z,79.07
2017-10-17T07:26:21.835Z,78.98
2017-10-17T07:27:23.727Z,78.88
2017-10-17T07:28:25.552Z,79.17
2017-10-17T07:29:27.381Z,78.40
2017-10-17T07:30:29.275Z,78.59
2017-10-17T07:31:31.167Z,78.50
2017-10-17T07:32:33.060Z,78.59
2017-10-17T07:33:47.233Z,78.50
2017-10-17T07:34:49.118Z,78.59
2017-10-17T07:35:51.008Z,78.69
2017-10-17T07:36:52.909Z,78.69
2017-10-17T07:37:54.765Z,78.53
2017-10-17T07:38:56.619Z,78.30
2017-10-17T07:39:58.509Z,78.06
2017-10-17T07:41:00.412Z,78.02
2017-10-17T07:42:02.307Z,77.58
2017-10-17T07:43:16.470Z,77.76
2017-10-17T07:44:18.362Z,77.58
2017-10-17T07:45:20.262Z,77.58
2017-10-17T07:46:22.144Z,77.58
2017-10-17T07:47:23.975Z,77.86
2017-10-17T07:48:25.802Z,77.48
2017-10-17T07:49:27.696Z,77.09
2017-10-17T07:50:29.590Z,77.19
2017-10-17T07:51:31.482Z,76.61
2017-10-17T07:52:45.644Z,76.67
2017-10-17T07:53:47.541Z,76.90
2017-10-17T07:54:49.855Z,76.61
2017-10-17T07:55:51.711Z,76.71
2017-10-17T07:56:53.538Z,76.61
2017-10-17T07:57:55.365Z,76.81
2017-10-17T07:58:57.260Z,76.90
2017-10-17T07:59:59.153Z,76.81
2017-10-17T08:01:01.044Z,76.81
2017-10-17T08:02:15.208Z,77.00
2017-10-17T08:03:17.100Z,76.90
2017-10-17T08:04:19.003Z,77.19
2017-10-17T08:05:20.892Z,76.71
2017-10-17T08:06:22.719Z,76.71
2017-10-17T08:07:24.552Z,76.14
2017-10-17T08:08:26.446Z,76.42
2017-10-17T08:09:28.337Z,75.75
2017-10-17T08:10:30.229Z,76.04
2017-10-17T08:11:44.392Z,76.23
2017-10-17T08:12:46.285Z,76.14
2017-10-17T08:13:48.175Z,75.84
2017-10-17T08:14:50.073Z,75.84
2017-10-17T08:15:51.900Z,75.84
2017-10-17T08:16:53.726Z,75.84
2017-10-17T08:17:55.630Z,75.65
2017-10-17T08:18:57.515Z,75.65
2017-10-17T08:19:59.406Z,75.56
2017-10-17T08:21:13.568Z,75.56
2017-10-17T08:22:15.460Z,75.37
2017-10-17T08:23:17.352Z,75.37
2017-10-17T08:24:19.245Z,75.37
2017-10-17T08:25:21.070Z,75.65
2017-10-17T08:26:22.897Z,75.84
2017-10-17T08:27:24.792Z,75.94
2017-10-17T08:28:26.689Z,75.17
2017-10-17T08:29:28.578Z,74.88
2017-10-17T08:30:42.743Z,74.98
2017-10-17T08:31:44.637Z,74.88
2017-10-17T08:32:46.544Z,74.88
2017-10-17T08:33:48.423Z,74.92
2017-10-17T08:34:50.251Z,75.31
2017-10-17T08:35:52.078Z,74.73
2017-10-17T08:36:53.973Z,74.92
2017-10-17T08:37:55.864Z,74.54
2017-10-17T08:38:57.756Z,74.73
2017-10-17T08:40:11.932Z,74.57
2017-10-17T08:41:13.844Z,74.86
2017-10-17T08:42:15.739Z,74.57
2017-10-17T08:43:17.631Z,74.29
2017-10-17T08:44:19.461Z,74.67
2017-10-17T08:45:21.289Z,74.67
2017-10-17T08:46:23.184Z,74.29
2017-10-17T08:47:25.074Z,74.29
2017-10-17T08:48:26.978Z,74.57
2017-10-17T08:49:41.140Z,73.90
2017-10-17T08:50:43.033Z,73.71
2017-10-17T08:51:44.926Z,74.09
2017-10-17T08:52:46.820Z,73.51
2017-10-17T08:53:48.651Z,73.51
2017-10-17T08:54:50.474Z,73.22
2017-10-17T08:55:52.388Z,73.13
2017-10-17T08:56:54.280Z,73.71
2017-10-17T08:57:56.173Z,73.42
2017-10-17T08:59:10.337Z,73.61
2017-10-17T09:00:12.232Z,73.99
2017-10-17T09:01:14.125Z,73.61
2017-10-17T09:02:16.017Z,73.51
2017-10-17T09:03:17.850Z,73.42
2017-10-17T09:04:19.673Z,73.22
2017-10-17T09:05:21.569Z,72.94
2017-10-17T09:06:23.460Z,73.03
2017-10-17T09:07:25.354Z,72.94
2017-10-17T09:08:39.516Z,73.03
2017-10-17T09:09:41.412Z,72.84
2017-10-17T09:10:43.303Z,72.74
2017-10-17T09:11:45.196Z,72.45
2017-10-17T09:12:47.024Z,72.55
2017-10-17T09:13:48.851Z,72.36
2017-10-17T09:14:50.750Z,72.36
2017-10-17T09:15:52.638Z,72.55
2017-10-17T09:16:54.531Z,71.87
2017-10-17T09:18:08.693Z,71.87
2017-10-17T09:19:10.585Z,72.17
2017-10-17T09:20:12.477Z,71.78
2017-10-17T09:21:14.380Z,71.97
2017-10-17T09:22:16.206Z,72.17
2017-10-17T09:23:18.033Z,72.17
2017-10-17T09:24:19.927Z,71.78
2017-10-17T09:25:21.820Z,72.26
2017-10-17T09:26:23.711Z,71.49
2017-10-17T09:27:37.884Z,71.53
2017-10-17T09:28:39.775Z,71.34
2017-10-17T09:29:41.668Z,71.53
2017-10-17T09:30:43.560Z,71.14
2017-10-17T09:31:45.394Z,70.95
2017-10-17T09:32:47.232Z,70.95
2017-10-17T09:33:49.117Z,71.24
2017-10-17T09:34:51.013Z,70.76
2017-10-17T09:35:52.901Z,70.86
2017-10-17T09:37:07.064Z,70.76
2017-10-17T09:38:08.959Z,70.56
2017-10-17T09:39:10.857Z,70.56
2017-10-17T09:40:12.746Z,70.66
2017-10-17T09:41:14.574Z,70.66
2017-10-17T09:42:16.400Z,70.76
2017-10-17T09:43:18.304Z,70.86
2017-10-17T09:44:20.191Z,70.89
2017-10-17T09:45:22.084Z,70.50
2017-10-17T09:46:36.248Z,70.50
2017-10-17T09:47:38.141Z,70.50
2017-10-17T09:48:40.031Z,70.41
2017-10-17T09:49:41.927Z,70.50
2017-10-17T09:50:43.753Z,70.12
2017-10-17T09:51:45.582Z,69.64
2017-10-17T09:52:47.479Z,70.02
2017-10-17T09:53:49.368Z,70.12
2017-10-17T09:54:51.262Z,69.93
2017-10-17T09:56:05.427Z,70.41
2017-10-17T09:57:07.319Z,69.54
2017-10-17T09:58:09.209Z,69.96
2017-10-17T09:59:11.103Z,69.57
2017-10-17T10:00:12.934Z,69.67
2017-10-17T10:01:14.763Z,69.57
2017-10-17T10:02:16.655Z,69.57
2017-10-17T10:03:18.549Z,68.99
2017-10-17T10:04:20.441Z,68.99
2017-10-17T10:05:34.602Z,68.42
2017-10-17T10:06:36.497Z,68.42
2017-10-17T10:07:38.387Z,68.32
2017-10-17T10:08:40.279Z,68.52
2017-10-17T10:09:42.110Z,68.32
2017-10-17T10:10:43.938Z,68.32
2017-10-17T10:11:45.830Z,68.23
2017-10-17T10:12:47.737Z,68.13
2017-10-17T10:13:49.620Z,68.13
2017-10-17T10:15:03.783Z,67.65
2017-10-17T10:16:05.676Z,67.74
2017-10-17T10:17:07.569Z,67.46
2017-10-17T10:18:09.462Z,67.55
2017-10-17T10:19:11.289Z,67.84
2017-10-17T10:20:13.118Z,67.84
2017-10-17T10:21:15.013Z,66.78
2017-10-17T10:22:16.904Z,67.26
2017-10-17T10:23:18.801Z,66.39
2017-10-17T10:24:33.016Z,67.16
2017-10-17T10:25:34.910Z,66.59
2017-10-17T10:26:36.813Z,66.88
2017-10-17T10:27:38.706Z,67.07
2017-10-17T10:28:40.535Z,66.59
2017-10-17T10:29:42.363Z,66.69
2017-10-17T10:30:44.261Z,66.04
2017-10-17T10:31:46.154Z,66.04
2017-10-17T10:32:48.073Z,65.75
2017-10-17T10:34:02.263Z,65.66
2017-10-17T10:35:04.156Z,65.56
2017-10-17T10:36:06.074Z,65.56
2017-10-17T10:37:07.956Z,65.37
2017-10-17T10:38:09.783Z,64.59
2017-10-17T10:39:11.611Z,64.69
2017-10-17T10:40:13.508Z,64.89
2017-10-17T10:41:15.434Z,64.79
2017-10-17T10:42:17.298Z,64.69
2017-10-17T10:43:31.462Z,64.79
2017-10-17T10:44:33.355Z,64.79
2017-10-17T10:45:35.248Z,64.69
2017-10-17T10:46:37.143Z,64.98
2017-10-17T10:47:38.971Z,64.59
2017-10-17T10:48:40.798Z,64.59
2017-10-17T10:49:42.694Z,65.08
2017-10-17T10:50:44.585Z,65.27
2017-10-17T10:51:46.479Z,65.40
2017-10-17T10:53:00.644Z,65.01
2017-10-17T10:54:02.538Z,65.40
2017-10-17T10:55:04.442Z,65.11
2017-10-17T10:56:06.336Z,65.30
2017-10-17T10:57:08.162Z,65.01
2017-10-17T10:58:09.991Z,65.01
2017-10-17T10:59:11.897Z,64.92
2017-10-17T11:00:13.794Z,65.01
2017-10-17T11:01:15.693Z,64.24
2017-10-17T11:02:29.906Z,64.53
2017-10-17T11:03:31.800Z,64.24
2017-10-17T11:04:33.693Z,64.82
2017-10-17T11:05:35.588Z,64.43
2017-10-17T11:06:37.417Z,64.24
2017-10-17T11:07:39.245Z,64.34
2017-10-17T11:08:41.140Z,64.34
2017-10-17T11:09:43.037Z,64.82
2017-10-17T11:10:44.969Z,64.63
2017-10-17T11:11:59.133Z,64.34
2017-10-17T11:13:01.029Z,64.24
2017-10-17T11:14:02.921Z,64.72
2017-10-17T11:15:04.818Z,63.95
2017-10-17T11:16:06.647Z,64.24
2017-10-17T11:17:08.475Z,63.98
2017-10-17T11:18:10.374Z,63.89
2017-10-17T11:19:12.274Z,64.18
2017-10-17T11:20:14.164Z,64.08
2017-10-17T11:21:28.328Z,63.50
2017-10-17T11:22:30.221Z,63.60
2017-10-17T11:23:32.112Z,63.79
2017-10-17T11:24:34.006Z,63.79
2017-10-17T11:25:35.834Z,63.12
2017-10-17T11:26:37.662Z,62.92
2017-10-17T11:27:40.297Z,63.02
2017-10-17T11:28:42.182Z,62.82
2017-10-17T11:29:44.077Z,62.92
2017-10-17T11:30:58.241Z,62.73
2017-10-17T11:32:00.135Z,62.54
2017-10-17T11:33:02.028Z,62.63
2017-10-17T11:34:03.924Z,63.02
2017-10-17T11:35:05.754Z,62.73
2017-10-17T11:36:07.584Z,62.82
2017-10-17T11:37:09.480Z,63.02
2017-10-17T11:38:11.378Z,63.12
2017-10-17T11:39:13.270Z,63.12
2017-10-17T11:40:27.432Z,63.02
2017-10-17T11:41:29.324Z,63.40
2017-10-17T11:42:31.217Z,62.73
2017-10-17T11:43:33.113Z,62.57
2017-10-17T11:44:34.943Z,63.05
2017-10-17T11:45:36.769Z,62.86
2017-10-17T11:46:38.666Z,62.05
2017-10-17T11:47:40.557Z,62.08
2017-10-17T11:48:42.455Z,62.28
2017-10-17T11:49:56.619Z,62.57
2017-10-17T11:50:58.513Z,62.28
2017-10-17T11:52:00.409Z,62.08
2017-10-17T11:53:02.301Z,62.18
2017-10-17T11:54:04.132Z,62.18
2017-10-17T11:55:05.962Z,62.18
2017-10-17T11:56:07.860Z,61.99
2017-10-17T11:57:09.750Z,62.28
2017-10-17T11:58:11.667Z,61.80
2017-10-17T11:59:25.820Z,62.57
2017-10-17T12:00:27.715Z,62.57
2017-10-17T12:01:29.606Z,62.47
2017-10-17T12:02:31.499Z,62.18
2017-10-17T12:03:33.335Z,61.99
2017-10-17T12:04:35.159Z,62.47
2017-10-17T12:05:37.053Z,61.70
2017-10-17T12:06:38.947Z,62.37
2017-10-17T12:07:40.849Z,62.47
2017-10-17T12:08:55.058Z,62.47
2017-10-17T12:09:56.959Z,62.08
2017-10-17T12:10:58.853Z,61.99
2017-10-17T12:12:00.750Z,62.28
2017-10-17T12:13:02.581Z,61.80
2017-10-17T12:14:04.408Z,61.99
2017-10-17T12:15:06.302Z,62.08
2017-10-17T12:16:08.195Z,61.89
2017-10-17T12:17:10.090Z,61.80
2017-10-17T12:18:24.258Z,61.60
2017-10-17T12:19:26.160Z,62.08
2017-10-17T12:20:28.059Z,61.60
2017-10-17T12:21:29.953Z,62.18
2017-10-17T12:22:31.783Z,61.89
2017-10-17T12:23:33.616Z,62.37
2017-10-17T12:24:35.511Z,61.60
2017-10-17T12:25:37.406Z,62.08
2017-10-17T12:26:39.307Z,62.08
2017-10-17T12:27:53.516Z,62.08
2017-10-17T12:28:55.410Z,61.60
2017-10-17T12:29:57.302Z,61.99
2017-10-17T12:30:59.198Z,62.18
2017-10-17T12:32:01.032Z,62.18
2017-10-17T12:33:02.859Z,62.05
2017-10-17T12:34:04.754Z,62.18
2017-10-17T12:35:06.644Z,61.80
2017-10-17T12:36:08.538Z,61.80
2017-10-17T12:37:22.705Z,61.86
2017-10-17T12:38:24.597Z,61.60
2017-10-17T12:39:26.500Z,62.08
2017-10-17T12:40:28.397Z,61.89
2017-10-17T12:41:30.225Z,61.99
2017-10-17T12:42:32.065Z,61.96
2017-10-17T12:43:33.962Z,61.80
2017-10-17T12:44:35.856Z,61.86
2017-10-17T12:45:37.751Z,61.80
2017-10-17T12:46:51.965Z,61.51
2017-10-17T12:47:53.865Z,61.51
2017-10-17T12:48:55.758Z,61.57
2017-10-17T12:49:57.654Z,61.89
2017-10-17T12:50:59.478Z,61.41
2017-10-17T12:52:01.307Z,61.19
2017-10-17T12:53:03.203Z,61.02
2017-10-17T12:54:05.095Z,60.44
2017-10-17T12:55:06.993Z,60.73
2017-10-17T12:56:21.155Z,60.54
2017-10-17T12:57:23.048Z,60.93
2017-10-17T12:58:24.940Z,60.64
2017-10-17T12:59:26.834Z,60.25
2017-10-17T13:00:28.665Z,60.25
2017-10-17T13:01:30.494Z,60.25
2017-10-17T13:02:32.392Z,60.25
2017-10-17T13:03:34.288Z,60.25
2017-10-17T13:04:36.182Z,60.35
2017-10-17T13:05:50.348Z,60.44
2017-10-17T13:06:52.247Z,59.96
2017-10-17T13:07:54.153Z,60.25
2017-10-17T13:08:56.038Z,60.35
2017-10-17T13:09:57.868Z,59.96
2017-10-17T13:10:59.696Z,60.35
2017-10-17T13:12:01.926Z,60.35
2017-10-17T13:13:03.785Z,60.64
2017-10-17T13:14:05.680Z,60.64
2017-10-17T13:15:19.853Z,60.83
2017-10-17T13:16:21.741Z,60.93
2017-10-17T13:17:23.634Z,60.73
2017-10-17T13:18:25.529Z,60.83
2017-10-17T13:19:27.358Z,60.73
2017-10-17T13:20:29.188Z,60.73
2017-10-17T13:21:31.083Z,60.99
2017-10-17T13:22:32.978Z,61.02
2017-10-17T13:23:34.871Z,60.61
2017-10-17T13:24:49.021Z,60.80
2017-10-17T13:25:50.917Z,60.41
2017-10-17T13:26:52.810Z,60.71
2017-10-17T13:27:54.708Z,60.61
2017-10-17T13:28:56.541Z,60.89
2017-10-17T13:29:58.371Z,60.73
2017-10-17T13:31:00.267Z,60.22
2017-10-17T13:32:02.161Z,61.02
2017-10-17T13:33:04.058Z,61.19
2017-10-17T13:34:18.222Z,60.99